sensor_id;sensor_type;location;lat;lon;timestamp;P1;durP1;ratioP1;P2;durP2;ratioP2
5135;SDS011;2586;48.710;9.202;2022-08-27T00:01:23;21.87;;;16.27;;
5135;SDS011;2586;48.710;9.202;2022-08-27T00:03:49;17.93;;;14.73;;
5135;SDS011;2586;48.710;9.202;2022-08-27T00:06:15;19.03;;;14.80;;
5135;SDS011;2586;48.710;9.202;2022-08-27T00:08:43;31.63;;;15.87;;
5135;SDS011;2586;48.710;9.202;2022-08-27T00:11:09;24.50;;;18.23;;
5135;SDS011;2586;48.710;9.202;2022-08-27T00:13:36;19.73;;;15.50;;
5135;SDS011;2586;48.710;9.202;2022-08-27T00:16:03;21.83;;;16.20;;
5135;SDS011;2586;48.710;9.202;2022-08-27T00:18:31;25.73;;;16.00;;
5135;SDS011;2586;48.710;9.202;2022-08-27T00:20:58;32.80;;;15.80;;
5135;SDS011;2586;48.710;9.202;2022-08-27T00:23:24;27.60;;;17.03;;
5135;SDS011;2586;48.710;9.202;2022-08-27T00:25:50;22.53;;;14.73;;
5135;SDS011;2586;48.710;9.202;2022-08-27T00:28:16;29.00;;;17.20;;
5135;SDS011;2586;48.710;9.202;2022-08-27T00:30:41;25.63;;;17.10;;
5135;SDS011;2586;48.710;9.202;2022-08-27T00:33:07;23.33;;;17.63;;
5135;SDS011;2586;48.710;9.202;2022-08-27T00:35:33;28.23;;;19.90;;
5135;SDS011;2586;48.710;9.202;2022-08-27T00:37:59;26.07;;;18.77;;
5135;SDS011;2586;48.710;9.202;2022-08-27T00:40:25;23.60;;;19.83;;
5135;SDS011;2586;48.710;9.202;2022-08-27T00:42:51;28.07;;;19.00;;
5135;SDS011;2586;48.710;9.202;2022-08-27T00:45:19;25.17;;;20.00;;
5135;SDS011;2586;48.710;9.202;2022-08-27T00:47:51;24.37;;;20.10;;
5135;SDS011;2586;48.710;9.202;2022-08-27T00:50:22;24.70;;;20.23;;
5135;SDS011;2586;48.710;9.202;2022-08-27T00:53:34;29.23;;;18.97;;
5135;SDS011;2586;48.710;9.202;2022-08-27T00:56:06;23.87;;;18.97;;
5135;SDS011;2586;48.710;9.202;2022-08-27T00:58:36;25.00;;;18.97;;
5135;SDS011;2586;48.710;9.202;2022-08-27T01:01:06;27.00;;;19.40;;
5135;SDS011;2586;48.710;9.202;2022-08-27T01:03:34;23.57;;;18.90;;
5135;SDS011;2586;48.710;9.202;2022-08-27T01:06:00;23.23;;;18.50;;
5135;SDS011;2586;48.710;9.202;2022-08-27T01:08:30;29.67;;;22.13;;
5135;SDS011;2586;48.710;9.202;2022-08-27T01:11:00;32.50;;;22.13;;
5135;SDS011;2586;48.710;9.202;2022-08-27T01:13:27;28.43;;;20.10;;
5135;SDS011;2586;48.710;9.202;2022-08-27T01:15:57;28.07;;;22.77;;
5135;SDS011;2586;48.710;9.202;2022-08-27T01:18:27;32.67;;;21.87;;
5135;SDS011;2586;48.710;9.202;2022-08-27T01:20:59;35.93;;;24.13;;
5135;SDS011;2586;48.710;9.202;2022-08-27T01:23:49;30.00;;;22.60;;
5135;SDS011;2586;48.710;9.202;2022-08-27T01:26:22;32.73;;;23.30;;
5135;SDS011;2586;48.710;9.202;2022-08-27T01:28:49;32.57;;;23.40;;
5135;SDS011;2586;48.710;9.202;2022-08-27T01:31:15;35.97;;;22.33;;
5135;SDS011;2586;48.710;9.202;2022-08-27T01:33:50;28.83;;;22.80;;
5135;SDS011;2586;48.710;9.202;2022-08-27T01:36:20;31.80;;;23.77;;
5135;SDS011;2586;48.710;9.202;2022-08-27T01:38:45;36.87;;;24.33;;
5135;SDS011;2586;48.710;9.202;2022-08-27T01:41:11;34.83;;;23.80;;
5135;SDS011;2586;48.710;9.202;2022-08-27T01:43:37;33.67;;;25.40;;
5135;SDS011;2586;48.710;9.202;2022-08-27T01:46:02;31.83;;;22.97;;
5135;SDS011;2586;48.710;9.202;2022-08-27T01:48:28;39.93;;;25.00;;
5135;SDS011;2586;48.710;9.202;2022-08-27T01:50:54;38.43;;;24.93;;
5135;SDS011;2586;48.710;9.202;2022-08-27T01:53:21;35.13;;;24.60;;
5135;SDS011;2586;48.710;9.202;2022-08-27T01:55:48;33.30;;;26.30;;
5135;SDS011;2586;48.710;9.202;2022-08-27T01:58:16;32.73;;;25.30;;
5135;SDS011;2586;48.710;9.202;2022-08-27T02:00:45;40.80;;;26.30;;
5135;SDS011;2586;48.710;9.202;2022-08-27T02:03:12;28.63;;;23.90;;
5135;SDS011;2586;48.710;9.202;2022-08-27T02:05:42;39.53;;;27.03;;
5135;SDS011;2586;48.710;9.202;2022-08-27T02:08:09;36.50;;;26.50;;
5135;SDS011;2586;48.710;9.202;2022-08-27T02:10:37;35.57;;;25.30;;
5135;SDS011;2586;48.710;9.202;2022-08-27T02:13:04;43.33;;;23.60;;
5135;SDS011;2586;48.710;9.202;2022-08-27T02:15:31;39.80;;;25.53;;
5135;SDS011;2586;48.710;9.202;2022-08-27T02:17:58;33.27;;;24.43;;
5135;SDS011;2586;48.710;9.202;2022-08-27T02:20:24;36.50;;;24.77;;
5135;SDS011;2586;48.710;9.202;2022-08-27T02:22:50;33.30;;;25.07;;
5135;SDS011;2586;48.710;9.202;2022-08-27T02:25:16;38.60;;;27.60;;
5135;SDS011;2586;48.710;9.202;2022-08-27T02:27:44;37.00;;;26.57;;
5135;SDS011;2586;48.710;9.202;2022-08-27T02:30:12;35.23;;;24.10;;
5135;SDS011;2586;48.710;9.202;2022-08-27T02:32:39;38.07;;;27.30;;
5135;SDS011;2586;48.710;9.202;2022-08-27T02:35:04;41.17;;;29.03;;
5135;SDS011;2586;48.710;9.202;2022-08-27T02:37:31;46.63;;;27.03;;
5135;SDS011;2586;48.710;9.202;2022-08-27T02:39:57;47.87;;;28.17;;
5135;SDS011;2586;48.710;9.202;2022-08-27T02:42:23;36.43;;;27.83;;
5135;SDS011;2586;48.710;9.202;2022-08-27T02:44:48;45.00;;;29.70;;
5135;SDS011;2586;48.710;9.202;2022-08-27T02:47:14;43.63;;;30.37;;
5135;SDS011;2586;48.710;9.202;2022-08-27T02:49:40;40.23;;;29.87;;
5135;SDS011;2586;48.710;9.202;2022-08-27T02:52:06;35.07;;;27.30;;
5135;SDS011;2586;48.710;9.202;2022-08-27T02:54:32;40.80;;;27.17;;
5135;SDS011;2586;48.710;9.202;2022-08-27T02:56:58;34.60;;;27.57;;
5135;SDS011;2586;48.710;9.202;2022-08-27T02:59:23;37.40;;;27.80;;
5135;SDS011;2586;48.710;9.202;2022-08-27T03:01:49;41.80;;;30.00;;
5135;SDS011;2586;48.710;9.202;2022-08-27T03:04:15;51.30;;;31.50;;
5135;SDS011;2586;48.710;9.202;2022-08-27T03:06:43;42.03;;;29.10;;
5135;SDS011;2586;48.710;9.202;2022-08-27T03:09:09;40.37;;;28.30;;
5135;SDS011;2586;48.710;9.202;2022-08-27T03:11:35;51.13;;;31.13;;
5135;SDS011;2586;48.710;9.202;2022-08-27T03:14:01;46.43;;;30.97;;
5135;SDS011;2586;48.710;9.202;2022-08-27T03:16:26;42.37;;;30.10;;
5135;SDS011;2586;48.710;9.202;2022-08-27T03:18:52;50.93;;;30.90;;
5135;SDS011;2586;48.710;9.202;2022-08-27T03:21:19;49.57;;;31.47;;
5135;SDS011;2586;48.710;9.202;2022-08-27T03:23:51;45.60;;;34.57;;
5135;SDS011;2586;48.710;9.202;2022-08-27T03:26:17;50.27;;;32.50;;
5135;SDS011;2586;48.710;9.202;2022-08-27T03:28:43;49.30;;;34.23;;
5135;SDS011;2586;48.710;9.202;2022-08-27T03:31:14;57.80;;;36.30;;
5135;SDS011;2586;48.710;9.202;2022-08-27T03:33:44;58.83;;;37.83;;
5135;SDS011;2586;48.710;9.202;2022-08-27T03:36:10;50.07;;;34.87;;
5135;SDS011;2586;48.710;9.202;2022-08-27T03:38:36;52.07;;;32.33;;
5135;SDS011;2586;48.710;9.202;2022-08-27T03:41:02;47.33;;;30.03;;
5135;SDS011;2586;48.710;9.202;2022-08-27T03:43:29;42.80;;;29.67;;
5135;SDS011;2586;48.710;9.202;2022-08-27T03:45:55;36.87;;;26.90;;
5135;SDS011;2586;48.710;9.202;2022-08-27T03:48:20;38.37;;;27.53;;
5135;SDS011;2586;48.710;9.202;2022-08-27T03:50:47;39.60;;;28.07;;
5135;SDS011;2586;48.710;9.202;2022-08-27T03:53:15;29.93;;;25.47;;
5135;SDS011;2586;48.710;9.202;2022-08-27T03:55:42;31.57;;;24.57;;
5135;SDS011;2586;48.710;9.202;2022-08-27T03:58:08;36.93;;;26.60;;
5135;SDS011;2586;48.710;9.202;2022-08-27T04:00:35;32.63;;;24.87;;
5135;SDS011;2586;48.710;9.202;2022-08-27T04:03:02;34.43;;;25.67;;
5135;SDS011;2586;48.710;9.202;2022-08-27T04:05:29;40.13;;;25.60;;
5135;SDS011;2586;48.710;9.202;2022-08-27T04:07:56;39.83;;;25.70;;
5135;SDS011;2586;48.710;9.202;2022-08-27T04:10:22;28.53;;;23.03;;
5135;SDS011;2586;48.710;9.202;2022-08-27T04:12:47;28.97;;;22.47;;
5135;SDS011;2586;48.710;9.202;2022-08-27T04:15:13;32.87;;;21.33;;
5135;SDS011;2586;48.710;9.202;2022-08-27T04:17:39;29.37;;;21.80;;
5135;SDS011;2586;48.710;9.202;2022-08-27T04:20:05;34.30;;;23.80;;
5135;SDS011;2586;48.710;9.202;2022-08-27T04:22:33;30.33;;;22.40;;
5135;SDS011;2586;48.710;9.202;2022-08-27T04:24:59;31.77;;;22.97;;
5135;SDS011;2586;48.710;9.202;2022-08-27T04:27:24;26.53;;;22.97;;
5135;SDS011;2586;48.710;9.202;2022-08-27T04:29:54;32.90;;;23.07;;
5135;SDS011;2586;48.710;9.202;2022-08-27T04:32:22;29.57;;;23.53;;
5135;SDS011;2586;48.710;9.202;2022-08-27T04:34:48;37.57;;;25.97;;
5135;SDS011;2586;48.710;9.202;2022-08-27T04:37:17;37.73;;;26.63;;
5135;SDS011;2586;48.710;9.202;2022-08-27T04:39:42;33.30;;;25.37;;
5135;SDS011;2586;48.710;9.202;2022-08-27T04:42:08;33.57;;;25.10;;
5135;SDS011;2586;48.710;9.202;2022-08-27T04:44:33;35.97;;;24.80;;
5135;SDS011;2586;48.710;9.202;2022-08-27T04:47:00;37.43;;;26.87;;
5135;SDS011;2586;48.710;9.202;2022-08-27T04:49:28;30.80;;;24.53;;
5135;SDS011;2586;48.710;9.202;2022-08-27T04:51:54;39.23;;;27.20;;
5135;SDS011;2586;48.710;9.202;2022-08-27T04:54:20;33.80;;;25.07;;
5135;SDS011;2586;48.710;9.202;2022-08-27T04:56:46;36.70;;;27.60;;
5135;SDS011;2586;48.710;9.202;2022-08-27T04:59:12;41.73;;;29.27;;
5135;SDS011;2586;48.710;9.202;2022-08-27T05:01:38;43.13;;;31.90;;
5135;SDS011;2586;48.710;9.202;2022-08-27T05:04:05;50.37;;;35.07;;
5135;SDS011;2586;48.710;9.202;2022-08-27T05:06:32;58.37;;;39.50;;
5135;SDS011;2586;48.710;9.202;2022-08-27T05:08:58;63.40;;;40.70;;
5135;SDS011;2586;48.710;9.202;2022-08-27T05:11:25;64.00;;;42.53;;
5135;SDS011;2586;48.710;9.202;2022-08-27T05:13:56;77.63;;;45.77;;
5135;SDS011;2586;48.710;9.202;2022-08-27T05:16:23;73.70;;;47.03;;
5135;SDS011;2586;48.710;9.202;2022-08-27T05:18:49;71.43;;;44.80;;
5135;SDS011;2586;48.710;9.202;2022-08-27T05:21:17;67.37;;;45.10;;
5135;SDS011;2586;48.710;9.202;2022-08-27T05:23:48;78.50;;;48.80;;
5135;SDS011;2586;48.710;9.202;2022-08-27T05:26:15;66.40;;;46.83;;
5135;SDS011;2586;48.710;9.202;2022-08-27T05:28:41;67.50;;;47.10;;
5135;SDS011;2586;48.710;9.202;2022-08-27T05:31:08;69.50;;;47.27;;
5135;SDS011;2586;48.710;9.202;2022-08-27T05:33:35;75.80;;;49.00;;
5135;SDS011;2586;48.710;9.202;2022-08-27T05:36:02;88.73;;;49.33;;
5135;SDS011;2586;48.710;9.202;2022-08-27T05:38:29;84.27;;;47.20;;
5135;SDS011;2586;48.710;9.202;2022-08-27T05:43:33;81.70;;;47.30;;
5135;SDS011;2586;48.710;9.202;2022-08-27T05:46:02;84.77;;;50.00;;
5135;SDS011;2586;48.710;9.202;2022-08-27T05:48:30;88.07;;;51.20;;
5135;SDS011;2586;48.710;9.202;2022-08-27T05:50:56;82.70;;;51.10;;
5135;SDS011;2586;48.710;9.202;2022-08-27T05:53:22;94.67;;;52.57;;
5135;SDS011;2586;48.710;9.202;2022-08-27T05:55:48;87.17;;;50.23;;
5135;SDS011;2586;48.710;9.202;2022-08-27T05:58:14;85.97;;;51.37;;
5135;SDS011;2586;48.710;9.202;2022-08-27T06:00:58;85.60;;;49.50;;
5135;SDS011;2586;48.710;9.202;2022-08-27T06:03:34;84.33;;;51.03;;
5135;SDS011;2586;48.710;9.202;2022-08-27T06:06:02;83.73;;;50.13;;
5135;SDS011;2586;48.710;9.202;2022-08-27T06:08:29;67.20;;;44.73;;
5135;SDS011;2586;48.710;9.202;2022-08-27T06:10:55;67.03;;;46.90;;
5135;SDS011;2586;48.710;9.202;2022-08-27T06:13:22;72.10;;;45.43;;
5135;SDS011;2586;48.710;9.202;2022-08-27T06:15:48;66.57;;;43.13;;
5135;SDS011;2586;48.710;9.202;2022-08-27T06:18:13;72.80;;;42.60;;
5135;SDS011;2586;48.710;9.202;2022-08-27T06:20:39;69.97;;;45.53;;
5135;SDS011;2586;48.710;9.202;2022-08-27T06:23:05;70.53;;;42.57;;
5135;SDS011;2586;48.710;9.202;2022-08-27T06:25:31;62.00;;;42.67;;
5135;SDS011;2586;48.710;9.202;2022-08-27T06:27:57;69.23;;;43.27;;
5135;SDS011;2586;48.710;9.202;2022-08-27T06:30:23;61.93;;;39.47;;
5135;SDS011;2586;48.710;9.202;2022-08-27T06:32:49;62.60;;;41.47;;
5135;SDS011;2586;48.710;9.202;2022-08-27T06:35:16;54.53;;;38.10;;
5135;SDS011;2586;48.710;9.202;2022-08-27T06:37:42;48.07;;;38.00;;
5135;SDS011;2586;48.710;9.202;2022-08-27T06:40:08;51.20;;;38.07;;
5135;SDS011;2586;48.710;9.202;2022-08-27T06:42:34;57.97;;;38.53;;
5135;SDS011;2586;48.710;9.202;2022-08-27T06:45:01;49.57;;;37.07;;
5135;SDS011;2586;48.710;9.202;2022-08-27T06:47:27;55.67;;;38.40;;
5135;SDS011;2586;48.710;9.202;2022-08-27T06:49:55;47.77;;;37.30;;
5135;SDS011;2586;48.710;9.202;2022-08-27T06:52:22;60.70;;;37.93;;
5135;SDS011;2586;48.710;9.202;2022-08-27T06:54:48;47.87;;;37.50;;
5135;SDS011;2586;48.710;9.202;2022-08-27T06:57:14;51.60;;;37.83;;
5135;SDS011;2586;48.710;9.202;2022-08-27T06:59:40;49.70;;;37.50;;
5135;SDS011;2586;48.710;9.202;2022-08-27T07:02:06;48.10;;;35.13;;
5135;SDS011;2586;48.710;9.202;2022-08-27T07:04:31;68.40;;;37.30;;
5135;SDS011;2586;48.710;9.202;2022-08-27T07:06:58;55.00;;;34.67;;
5135;SDS011;2586;48.710;9.202;2022-08-27T07:09:27;44.23;;;34.33;;
5135;SDS011;2586;48.710;9.202;2022-08-27T07:11:55;42.33;;;34.40;;
5135;SDS011;2586;48.710;9.202;2022-08-27T07:14:21;47.83;;;36.13;;
5135;SDS011;2586;48.710;9.202;2022-08-27T07:16:47;47.63;;;34.83;;
5135;SDS011;2586;48.710;9.202;2022-08-27T07:19:14;49.77;;;37.27;;
5135;SDS011;2586;48.710;9.202;2022-08-27T07:21:40;45.10;;;35.10;;
5135;SDS011;2586;48.710;9.202;2022-08-27T07:24:05;59.53;;;36.57;;
5135;SDS011;2586;48.710;9.202;2022-08-27T07:26:33;48.20;;;34.20;;
5135;SDS011;2586;48.710;9.202;2022-08-27T07:29:02;48.70;;;33.20;;
5135;SDS011;2586;48.710;9.202;2022-08-27T07:31:32;48.60;;;33.83;;
5135;SDS011;2586;48.710;9.202;2022-08-27T07:33:59;50.40;;;36.97;;
5135;SDS011;2586;48.710;9.202;2022-08-27T07:36:26;56.87;;;36.93;;
5135;SDS011;2586;48.710;9.202;2022-08-27T07:38:52;48.33;;;35.50;;
5135;SDS011;2586;48.710;9.202;2022-08-27T07:41:18;47.10;;;33.00;;
5135;SDS011;2586;48.710;9.202;2022-08-27T07:43:43;50.00;;;37.17;;
5135;SDS011;2586;48.710;9.202;2022-08-27T07:46:27;50.93;;;34.27;;
5135;SDS011;2586;48.710;9.202;2022-08-27T07:48:53;53.30;;;35.47;;
5135;SDS011;2586;48.710;9.202;2022-08-27T07:51:23;45.70;;;34.30;;
5135;SDS011;2586;48.710;9.202;2022-08-27T07:53:50;51.07;;;36.70;;
5135;SDS011;2586;48.710;9.202;2022-08-27T07:56:18;50.33;;;35.27;;
5135;SDS011;2586;48.710;9.202;2022-08-27T07:58:44;54.73;;;34.13;;
5135;SDS011;2586;48.710;9.202;2022-08-27T08:01:10;44.13;;;33.07;;
5135;SDS011;2586;48.710;9.202;2022-08-27T08:03:37;51.73;;;35.83;;
5135;SDS011;2586;48.710;9.202;2022-08-27T08:06:07;50.10;;;35.03;;
5135;SDS011;2586;48.710;9.202;2022-08-27T08:08:35;52.33;;;35.70;;
5135;SDS011;2586;48.710;9.202;2022-08-27T08:11:04;45.43;;;33.67;;
5135;SDS011;2586;48.710;9.202;2022-08-27T08:13:31;46.70;;;34.67;;
5135;SDS011;2586;48.710;9.202;2022-08-27T08:15:57;48.40;;;33.57;;
5135;SDS011;2586;48.710;9.202;2022-08-27T08:18:23;55.40;;;34.30;;
5135;SDS011;2586;48.710;9.202;2022-08-27T08:20:49;61.73;;;33.93;;
5135;SDS011;2586;48.710;9.202;2022-08-27T08:23:15;47.53;;;34.23;;
5135;SDS011;2586;48.710;9.202;2022-08-27T08:25:41;53.53;;;36.07;;
5135;SDS011;2586;48.710;9.202;2022-08-27T08:28:07;60.47;;;34.23;;
5135;SDS011;2586;48.710;9.202;2022-08-27T08:30:33;60.07;;;36.60;;
5135;SDS011;2586;48.710;9.202;2022-08-27T08:32:59;47.77;;;37.97;;
5135;SDS011;2586;48.710;9.202;2022-08-27T08:35:24;49.93;;;34.30;;
5135;SDS011;2586;48.710;9.202;2022-08-27T08:37:50;60.97;;;32.43;;
5135;SDS011;2586;48.710;9.202;2022-08-27T08:42:57;45.73;;;31.13;;
5135;SDS011;2586;48.710;9.202;2022-08-27T08:45:25;53.60;;;33.07;;
5135;SDS011;2586;48.710;9.202;2022-08-27T08:47:55;40.23;;;30.27;;
5135;SDS011;2586;48.710;9.202;2022-08-27T08:55:38;42.90;;;31.10;;
5135;SDS011;2586;48.710;9.202;2022-08-27T09:00:50;58.43;;;36.70;;
5135;SDS011;2586;48.710;9.202;2022-08-27T09:03:20;59.53;;;39.00;;
5135;SDS011;2586;48.710;9.202;2022-08-27T09:05:47;62.27;;;40.17;;
5135;SDS011;2586;48.710;9.202;2022-08-27T09:08:25;65.57;;;40.50;;
5135;SDS011;2586;48.710;9.202;2022-08-27T09:11:04;67.33;;;38.73;;
5135;SDS011;2586;48.710;9.202;2022-08-27T09:13:54;68.47;;;41.27;;
5135;SDS011;2586;48.710;9.202;2022-08-27T09:16:23;58.20;;;39.70;;
5135;SDS011;2586;48.710;9.202;2022-08-27T09:18:49;66.93;;;42.17;;
5135;SDS011;2586;48.710;9.202;2022-08-27T09:24:22;58.80;;;39.00;;
5135;SDS011;2586;48.710;9.202;2022-08-27T09:27:12;63.77;;;38.33;;
5135;SDS011;2586;48.710;9.202;2022-08-27T09:29:49;55.93;;;37.80;;
5135;SDS011;2586;48.710;9.202;2022-08-27T09:32:26;61.40;;;35.07;;
5135;SDS011;2586;48.710;9.202;2022-08-27T09:34:57;48.90;;;35.13;;
5135;SDS011;2586;48.710;9.202;2022-08-27T09:37:25;49.30;;;31.83;;
5135;SDS011;2586;48.710;9.202;2022-08-27T09:39:58;39.83;;;30.77;;
5135;SDS011;2586;48.710;9.202;2022-08-27T09:45:00;44.67;;;32.70;;
5135;SDS011;2586;48.710;9.202;2022-08-27T09:47:39;60.77;;;29.67;;
5135;SDS011;2586;48.710;9.202;2022-08-27T09:50:07;46.77;;;29.13;;
5135;SDS011;2586;48.710;9.202;2022-08-27T09:52:46;44.13;;;29.57;;
5135;SDS011;2586;48.710;9.202;2022-08-27T09:55:52;41.77;;;30.80;;
5135;SDS011;2586;48.710;9.202;2022-08-27T09:58:18;40.40;;;25.67;;
5135;SDS011;2586;48.710;9.202;2022-08-27T10:00:45;32.07;;;21.97;;
5135;SDS011;2586;48.710;9.202;2022-08-27T10:03:12;28.70;;;21.03;;
5135;SDS011;2586;48.710;9.202;2022-08-27T10:05:43;19.97;;;17.77;;
5135;SDS011;2586;48.710;9.202;2022-08-27T10:08:21;15.60;;;11.90;;
5135;SDS011;2586;48.710;9.202;2022-08-27T10:16:35;10.03;;;7.77;;
5135;SDS011;2586;48.710;9.202;2022-08-27T10:22:11;8.87;;;7.97;;
5135;SDS011;2586;48.710;9.202;2022-08-27T10:27:35;8.07;;;7.33;;
5135;SDS011;2586;48.710;9.202;2022-08-27T10:30:11;9.10;;;8.20;;
5135;SDS011;2586;48.710;9.202;2022-08-27T10:32:48;8.70;;;7.90;;
5135;SDS011;2586;48.710;9.202;2022-08-27T10:35:26;9.07;;;8.27;;
5135;SDS011;2586;48.710;9.202;2022-08-27T10:38:05;9.07;;;7.70;;
5135;SDS011;2586;48.710;9.202;2022-08-27T10:43:33;9.83;;;8.87;;
5135;SDS011;2586;48.710;9.202;2022-08-27T10:46:22;9.90;;;9.00;;
5135;SDS011;2586;48.710;9.202;2022-08-27T10:49:16;10.73;;;9.73;;
5135;SDS011;2586;48.710;9.202;2022-08-27T10:52:00;10.70;;;9.70;;
5135;SDS011;2586;48.710;9.202;2022-08-27T10:54:33;12.40;;;11.10;;
5135;SDS011;2586;48.710;9.202;2022-08-27T10:59:50;13.70;;;12.13;;
5135;SDS011;2586;48.710;9.202;2022-08-27T11:02:32;15.03;;;13.43;;
5135;SDS011;2586;48.710;9.202;2022-08-27T11:05:03;21.33;;;13.50;;
5135;SDS011;2586;48.710;9.202;2022-08-27T11:07:37;22.47;;;16.00;;
5135;SDS011;2586;48.710;9.202;2022-08-27T11:10:07;17.10;;;14.33;;
5135;SDS011;2586;48.710;9.202;2022-08-27T11:12:44;22.40;;;14.27;;
5135;SDS011;2586;48.710;9.202;2022-08-27T11:15:20;16.77;;;13.67;;
5135;SDS011;2586;48.710;9.202;2022-08-27T11:20:48;15.10;;;13.70;;
5135;SDS011;2586;48.710;9.202;2022-08-27T11:23:24;17.17;;;15.37;;
5135;SDS011;2586;48.710;9.202;2022-08-27T11:25:58;16.80;;;15.00;;
5135;SDS011;2586;48.710;9.202;2022-08-27T11:28:29;19.70;;;15.30;;
5135;SDS011;2586;48.710;9.202;2022-08-27T11:31:04;18.53;;;16.00;;
5135;SDS011;2586;48.710;9.202;2022-08-27T11:42:53;18.30;;;16.50;;
5135;SDS011;2586;48.710;9.202;2022-08-27T11:45:31;24.77;;;18.07;;
5135;SDS011;2586;48.710;9.202;2022-08-27T11:48:17;24.40;;;19.27;;
5135;SDS011;2586;48.710;9.202;2022-08-27T11:51:02;18.63;;;16.73;;
5135;SDS011;2586;48.710;9.202;2022-08-27T11:53:32;21.67;;;18.97;;
5135;SDS011;2586;48.710;9.202;2022-08-27T11:56:13;24.70;;;19.13;;
5135;SDS011;2586;48.710;9.202;2022-08-27T12:01:50;20.23;;;17.80;;
5135;SDS011;2586;48.710;9.202;2022-08-27T12:04:19;31.03;;;19.07;;
5135;SDS011;2586;48.710;9.202;2022-08-27T12:07:04;28.17;;;19.90;;
5135;SDS011;2586;48.710;9.202;2022-08-27T12:15:11;29.40;;;20.03;;
5135;SDS011;2586;48.710;9.202;2022-08-27T12:17:44;19.00;;;16.40;;
5135;SDS011;2586;48.710;9.202;2022-08-27T12:23:14;23.73;;;20.63;;
5135;SDS011;2586;48.710;9.202;2022-08-27T12:28:45;26.30;;;19.27;;
5135;SDS011;2586;48.710;9.202;2022-08-27T12:31:14;26.17;;;19.87;;
5135;SDS011;2586;48.710;9.202;2022-08-27T12:33:44;26.23;;;19.70;;
5135;SDS011;2586;48.710;9.202;2022-08-27T12:36:21;22.37;;;18.50;;
5135;SDS011;2586;48.710;9.202;2022-08-27T12:38:55;21.33;;;19.03;;
5135;SDS011;2586;48.710;9.202;2022-08-27T12:41:30;20.33;;;17.23;;
5135;SDS011;2586;48.710;9.202;2022-08-27T12:44:23;29.60;;;18.57;;
5135;SDS011;2586;48.710;9.202;2022-08-27T12:47:08;20.17;;;18.00;;
5135;SDS011;2586;48.710;9.202;2022-08-27T12:52:26;22.17;;;19.50;;
5135;SDS011;2586;48.710;9.202;2022-08-27T12:57:59;22.40;;;17.77;;
5135;SDS011;2586;48.710;9.202;2022-08-27T13:00:33;21.93;;;19.60;;
5135;SDS011;2586;48.710;9.202;2022-08-27T13:03:28;26.07;;;19.00;;
5135;SDS011;2586;48.710;9.202;2022-08-27T13:05:58;25.40;;;18.83;;
5135;SDS011;2586;48.710;9.202;2022-08-27T13:08:32;28.87;;;20.30;;
5135;SDS011;2586;48.710;9.202;2022-08-27T13:13:46;29.27;;;20.30;;
5135;SDS011;2586;48.710;9.202;2022-08-27T13:16:12;31.63;;;21.20;;
5135;SDS011;2586;48.710;9.202;2022-08-27T13:18:38;25.23;;;21.63;;
5135;SDS011;2586;48.710;9.202;2022-08-27T13:21:12;21.83;;;19.50;;
5135;SDS011;2586;48.710;9.202;2022-08-27T13:23:52;20.20;;;18.03;;
5135;SDS011;2586;48.710;9.202;2022-08-27T13:26:21;24.23;;;18.83;;
5135;SDS011;2586;48.710;9.202;2022-08-27T13:28:49;21.33;;;17.27;;
5135;SDS011;2586;48.710;9.202;2022-08-27T13:31:17;28.43;;;20.40;;
5135;SDS011;2586;48.710;9.202;2022-08-27T13:33:44;29.50;;;20.03;;
5135;SDS011;2586;48.710;9.202;2022-08-27T13:36:10;25.03;;;18.50;;
5135;SDS011;2586;48.710;9.202;2022-08-27T13:38:41;19.30;;;16.37;;
5135;SDS011;2586;48.710;9.202;2022-08-27T13:41:26;22.30;;;17.23;;
5135;SDS011;2586;48.710;9.202;2022-08-27T13:43:53;19.17;;;17.23;;
5135;SDS011;2586;48.710;9.202;2022-08-27T13:46:20;16.43;;;12.40;;
5135;SDS011;2586;48.710;9.202;2022-08-27T13:48:48;10.07;;;6.77;;
5135;SDS011;2586;48.710;9.202;2022-08-27T13:51:22;7.57;;;5.80;;
5135;SDS011;2586;48.710;9.202;2022-08-27T13:53:56;8.33;;;6.83;;
5135;SDS011;2586;48.710;9.202;2022-08-27T13:56:37;11.47;;;9.10;;
5135;SDS011;2586;48.710;9.202;2022-08-27T13:59:39;16.30;;;9.27;;
5135;SDS011;2586;48.710;9.202;2022-08-27T14:04:40;16.17;;;14.53;;
5135;SDS011;2586;48.710;9.202;2022-08-27T14:07:11;18.53;;;14.87;;
5135;SDS011;2586;48.710;9.202;2022-08-27T14:09:42;18.30;;;13.87;;
5135;SDS011;2586;48.710;9.202;2022-08-27T14:12:36;19.20;;;12.83;;
5135;SDS011;2586;48.710;9.202;2022-08-27T14:15:23;13.53;;;12.13;;
5135;SDS011;2586;48.710;9.202;2022-08-27T14:17:52;27.90;;;12.90;;
5135;SDS011;2586;48.710;9.202;2022-08-27T14:20:18;7.33;;;6.70;;
5135;SDS011;2586;48.710;9.202;2022-08-27T14:22:45;3.53;;;3.33;;
5135;SDS011;2586;48.710;9.202;2022-08-27T14:25:11;5.53;;;3.50;;
5135;SDS011;2586;48.710;9.202;2022-08-27T14:27:38;4.40;;;4.10;;
5135;SDS011;2586;48.710;9.202;2022-08-27T14:30:08;4.90;;;3.30;;
5135;SDS011;2586;48.710;9.202;2022-08-27T14:32:38;2.90;;;2.80;;
5135;SDS011;2586;48.710;9.202;2022-08-27T14:35:05;4.00;;;3.60;;
5135;SDS011;2586;48.710;9.202;2022-08-27T14:37:31;4.53;;;3.53;;
5135;SDS011;2586;48.710;9.202;2022-08-27T14:39:57;4.73;;;3.60;;
5135;SDS011;2586;48.710;9.202;2022-08-27T14:42:23;4.43;;;4.03;;
5135;SDS011;2586;48.710;9.202;2022-08-27T14:44:49;4.00;;;3.70;;
5135;SDS011;2586;48.710;9.202;2022-08-27T14:47:14;6.47;;;4.03;;
5135;SDS011;2586;48.710;9.202;2022-08-27T14:49:41;5.27;;;4.77;;
5135;SDS011;2586;48.710;9.202;2022-08-27T14:52:09;8.70;;;5.80;;
5135;SDS011;2586;48.710;9.202;2022-08-27T14:54:36;11.97;;;5.73;;
5135;SDS011;2586;48.710;9.202;2022-08-27T14:57:03;8.57;;;7.77;;
5135;SDS011;2586;48.710;9.202;2022-08-27T14:59:30;8.27;;;6.50;;
5135;SDS011;2586;48.710;9.202;2022-08-27T15:01:56;8.47;;;7.67;;
5135;SDS011;2586;48.710;9.202;2022-08-27T15:04:24;8.47;;;7.63;;
5135;SDS011;2586;48.710;9.202;2022-08-27T15:06:51;9.13;;;8.33;;
5135;SDS011;2586;48.710;9.202;2022-08-27T15:09:16;13.30;;;8.87;;
5135;SDS011;2586;48.710;9.202;2022-08-27T15:11:42;12.93;;;9.83;;
5135;SDS011;2586;48.710;9.202;2022-08-27T15:14:11;17.77;;;9.67;;
5135;SDS011;2586;48.710;9.202;2022-08-27T15:16:41;10.47;;;9.37;;
5135;SDS011;2586;48.710;9.202;2022-08-27T15:19:08;16.63;;;8.53;;
5135;SDS011;2586;48.710;9.202;2022-08-27T15:21:37;10.07;;;9.07;;
5135;SDS011;2586;48.710;9.202;2022-08-27T15:24:05;7.60;;;6.90;;
5135;SDS011;2586;48.710;9.202;2022-08-27T15:26:39;10.10;;;8.50;;
5135;SDS011;2586;48.710;9.202;2022-08-27T15:29:05;8.33;;;7.53;;
5135;SDS011;2586;48.710;9.202;2022-08-27T15:31:31;12.20;;;8.23;;
5135;SDS011;2586;48.710;9.202;2022-08-27T15:33:57;9.00;;;7.80;;
5135;SDS011;2586;48.710;9.202;2022-08-27T15:36:22;10.30;;;7.43;;
5135;SDS011;2586;48.710;9.202;2022-08-27T15:38:49;8.77;;;7.97;;
5135;SDS011;2586;48.710;9.202;2022-08-27T15:41:14;9.27;;;7.77;;
5135;SDS011;2586;48.710;9.202;2022-08-27T15:43:40;8.07;;;7.37;;
5135;SDS011;2586;48.710;9.202;2022-08-27T15:46:06;12.10;;;8.37;;
5135;SDS011;2586;48.710;9.202;2022-08-27T15:48:32;9.03;;;7.97;;
5135;SDS011;2586;48.710;9.202;2022-08-27T15:51:04;10.13;;;9.13;;
5135;SDS011;2586;48.710;9.202;2022-08-27T15:53:32;13.80;;;10.43;;
5135;SDS011;2586;48.710;9.202;2022-08-27T15:55:58;10.00;;;9.10;;
5135;SDS011;2586;48.710;9.202;2022-08-27T15:58:24;14.87;;;10.23;;
5135;SDS011;2586;48.710;9.202;2022-08-27T16:00:50;17.03;;;12.03;;
5135;SDS011;2586;48.710;9.202;2022-08-27T16:03:17;17.33;;;11.90;;
5135;SDS011;2586;48.710;9.202;2022-08-27T16:05:43;14.33;;;11.03;;
5135;SDS011;2586;48.710;9.202;2022-08-27T16:08:10;10.80;;;9.70;;
5135;SDS011;2586;48.710;9.202;2022-08-27T16:10:36;13.57;;;10.57;;
5135;SDS011;2586;48.710;9.202;2022-08-27T16:13:02;12.50;;;10.33;;
5135;SDS011;2586;48.710;9.202;2022-08-27T16:15:36;12.70;;;9.63;;
5135;SDS011;2586;48.710;9.202;2022-08-27T16:18:03;20.43;;;11.83;;